sensor_id;sensor_type;location;lat;lon;timestamp;pressure;altitude;pressure_sealevel;temperature;humidity
9257;BME280;4665;51.368;6.782;2022-07-21T00:00:27;101465.66;;;19.84;100.00
9257;BME280;4665;51.368;6.782;2022-07-21T00:02:54;101450.25;;;19.78;100.00
9257;BME280;4665;51.368;6.782;2022-07-21T00:05:21;101454.63;;;19.79;100.00
9257;BME280;4665;51.368;6.782;2022-07-21T00:07:47;101468.78;;;19.81;100.00
9257;BME280;4665;51.368;6.782;2022-07-21T00:10:13;101459.34;;;19.70;100.00
9257;BME280;4665;51.368;6.782;2022-07-21T00:12:39;101473.91;;;19.69;100.00
9257;BME280;4665;51.368;6.782;2022-07-21T00:15:05;101468.66;;;19.67;100.00
9257;BME280;4665;51.368;6.782;2022-07-21T00:17:31;101455.31;;;19.59;100.00
9257;BME280;4665;51.368;6.782;2022-07-21T00:19:57;101463.41;;;19.59;100.00
9257;BME280;4665;51.368;6.782;2022-07-21T00:22:22;101442.34;;;19.48;100.00
9257;BME280;4665;51.368;6.782;2022-07-21T00:24:48;101445.69;;;19.50;100.00
9257;BME280;4665;51.368;6.782;2022-07-21T00:27:13;101456.31;;;19.58;100.00
9257;BME280;4665;51.368;6.782;2022-07-21T00:29:39;101461.91;;;19.50;100.00
9257;BME280;4665;51.368;6.782;2022-07-21T00:32:04;101470.25;;;19.55;100.00
9257;BME280;4665;51.368;6.782;2022-07-21T00:34:31;101457.09;;;19.45;100.00
9257;BME280;4665;51.368;6.782;2022-07-21T00:36:56;101476.88;;;19.52;100.00
9257;BME280;4665;51.368;6.782;2022-07-21T00:39:22;101476.03;;;19.52;100.00
9257;BME280;4665;51.368;6.782;2022-07-21T00:41:48;101467.88;;;19.45;100.00
9257;BME280;4665;51.368;6.782;2022-07-21T00:44:32;101465.97;;;19.39;100.00
9257;BME280;4665;51.368;6.782;2022-07-21T00:46:57;101463.25;;;19.39;100.00
9257;BME280;4665;51.368;6.782;2022-07-21T00:49:23;101472.84;;;19.42;100.00
9257;BME280;4665;51.368;6.782;2022-07-21T00:51:48;101461.91;;;19.28;100.00
9257;BME280;4665;51.368;6.782;2022-07-21T00:54:15;101466.44;;;19.21;100.00
9257;BME280;4665;51.368;6.782;2022-07-21T00:56:42;101457.91;;;19.18;100.00
9257;BME280;4665;51.368;6.782;2022-07-21T00:59:07;101465.78;;;19.19;100.00
9257;BME280;4665;51.368;6.782;2022-07-21T01:01:33;101461.19;;;19.13;100.00
9257;BME280;4665;51.368;6.782;2022-07-21T01:03:58;101468.81;;;19.09;100.00
9257;BME280;4665;51.368;6.782;2022-07-21T01:06:24;101469.34;;;18.98;100.00
9257;BME280;4665;51.368;6.782;2022-07-21T01:08:51;101459.28;;;18.85;100.00
9257;BME280;4665;51.368;6.782;2022-07-21T01:11:18;101465.31;;;18.87;100.00
9257;BME280;4665;51.368;6.782;2022-07-21T01:13:45;101470.06;;;18.85;100.00
9257;BME280;4665;51.368;6.782;2022-07-21T01:16:11;101450.19;;;18.71;100.00
9257;BME280;4665;51.368;6.782;2022-07-21T01:18:36;101473.78;;;18.84;100.00
9257;BME280;4665;51.368;6.782;2022-07-21T01:21:40;101474.34;;;18.80;100.00
9257;BME280;4665;51.368;6.782;2022-07-21T01:23:59;101477.91;;;18.80;100.00
9257;BME280;4665;51.368;6.782;2022-07-21T01:26:25;101480.22;;;18.83;100.00
9257;BME280;4665;51.368;6.782;2022-07-21T01:28:51;101482.53;;;18.86;100.00
9257;BME280;4665;51.368;6.782;2022-07-21T01:31:16;101491.84;;;18.84;100.00
9257;BME280;4665;51.368;6.782;2022-07-21T01:33:42;101482.44;;;18.80;100.00
9257;BME280;4665;51.368;6.782;2022-07-21T01:36:08;101481.03;;;18.84;100.00
9257;BME280;4665;51.368;6.782;2022-07-21T01:38:33;101462.44;;;18.74;100.00
9257;BME280;4665;51.368;6.782;2022-07-21T01:41:18;101486.66;;;18.82;100.00
9257;BME280;4665;51.368;6.782;2022-07-21T01:43:56;101494.28;;;18.79;100.00
9257;BME280;4665;51.368;6.782;2022-07-21T01:46:22;101493.16;;;18.73;100.00
9257;BME280;4665;51.368;6.782;2022-07-21T01:48:47;101500.22;;;18.74;100.00
9257;BME280;4665;51.368;6.782;2022-07-21T01:51:13;101503.56;;;18.76;100.00
9257;BME280;4665;51.368;6.782;2022-07-21T01:53:39;101494.47;;;18.77;100.00
9257;BME280;4665;51.368;6.782;2022-07-21T01:56:05;101494.28;;;18.79;100.00
9257;BME280;4665;51.368;6.782;2022-07-21T01:58:31;101491.78;;;18.77;100.00
9257;BME280;4665;51.368;6.782;2022-07-21T02:00:57;101489.97;;;18.84;100.00
9257;BME280;4665;51.368;6.782;2022-07-21T02:03:23;101484.88;;;18.75;100.00
9257;BME280;4665;51.368;6.782;2022-07-21T02:05:48;101485.06;;;18.73;100.00
9257;BME280;4665;51.368;6.782;2022-07-21T02:08:14;101471.44;;;18.60;100.00
9257;BME280;4665;51.368;6.782;2022-07-21T02:10:39;101472.72;;;18.64;100.00
9257;BME280;4665;51.368;6.782;2022-07-21T02:13:05;101463.97;;;18.62;100.00
9257;BME280;4665;51.368;6.782;2022-07-21T02:15:31;101480.44;;;18.67;100.00
9257;BME280;4665;51.368;6.782;2022-07-21T02:17:57;101480.69;;;18.72;100.00
9257;BME280;4665;51.368;6.782;2022-07-21T02:20:24;101472.41;;;18.74;100.00
9257;BME280;4665;51.368;6.782;2022-07-21T02:22:49;101478.63;;;18.74;100.00
9257;BME280;4665;51.368;6.782;2022-07-21T02:25:15;101466.94;;;18.67;100.00
9257;BME280;4665;51.368;6.782;2022-07-21T02:27:42;101474.38;;;18.65;100.00
9257;BME280;4665;51.368;6.782;2022-07-21T02:30:08;101474.78;;;18.62;100.00
9257;BME280;4665;51.368;6.782;2022-07-21T02:32:33;101466.88;;;18.60;100.00
9257;BME280;4665;51.368;6.782;2022-07-21T02:34:59;101463.97;;;18.62;100.00
9257;BME280;4665;51.368;6.782;2022-07-21T02:37:24;101468.16;;;18.64;100.00
9257;BME280;4665;51.368;6.782;2022-07-21T02:39:50;101457.69;;;18.55;100.00
9257;BME280;4665;51.368;6.782;2022-07-21T02:42:15;101459.34;;;18.56;100.00
9257;BME280;4665;51.368;6.782;2022-07-21T02:44:40;101476.00;;;18.59;100.00
9257;BME280;4665;51.368;6.782;2022-07-21T02:47:06;101448.78;;;18.39;100.00
9257;BME280;4665;51.368;6.782;2022-07-21T02:49:32;101483.53;;;18.49;100.00
9257;BME280;4665;51.368;6.782;2022-07-21T02:51:57;101464.22;;;18.45;100.00
9257;BME280;4665;51.368;6.782;2022-07-21T02:54:23;101457.28;;;18.36;100.00
9257;BME280;4665;51.368;6.782;2022-07-21T02:56:48;101471.28;;;18.46;100.00
9257;BME280;4665;51.368;6.782;2022-07-21T02:59:14;101466.44;;;18.42;100.00
9257;BME280;4665;51.368;6.782;2022-07-21T03:01:40;101455.13;;;18.32;100.00
9257;BME280;4665;51.368;6.782;2022-07-21T03:04:05;101456.16;;;18.30;100.00
9257;BME280;4665;51.368;6.782;2022-07-21T03:06:31;101450.97;;;18.29;100.00
9257;BME280;4665;51.368;6.782;2022-07-21T03:08:56;101445.94;;;18.26;100.00
9257;BME280;4665;51.368;6.782;2022-07-21T03:11:22;101447.78;;;18.25;100.00
9257;BME280;4665;51.368;6.782;2022-07-21T03:13:47;101463.31;;;18.38;100.00
9257;BME280;4665;51.368;6.782;2022-07-21T03:16:13;101453.91;;;18.34;100.00
9257;BME280;4665;51.368;6.782;2022-07-21T03:18:38;101449.94;;;18.30;100.00
9257;BME280;4665;51.368;6.782;2022-07-21T03:21:04;101462.84;;;18.35;100.00
9257;BME280;4665;51.368;6.782;2022-07-21T03:23:29;101457.44;;;18.35;100.00
9257;BME280;4665;51.368;6.782;2022-07-21T03:25:55;101462.44;;;18.38;100.00
9257;BME280;4665;51.368;6.782;2022-07-21T03:28:20;101466.19;;;18.37;100.00
9257;BME280;4665;51.368;6.782;2022-07-21T03:30:46;101458.66;;;18.32;100.00
9257;BME280;4665;51.368;6.782;2022-07-21T03:33:11;101455.41;;;18.37;100.00
9257;BME280;4665;51.368;6.782;2022-07-21T03:35:37;101452.44;;;18.32;100.00
9257;BME280;4665;51.368;6.782;2022-07-21T03:38:02;101456.63;;;18.34;100.00
9257;BME280;4665;51.368;6.782;2022-07-21T03:40:30;101461.19;;;18.34;100.00
9257;BME280;4665;51.368;6.782;2022-07-21T03:42:58;101462.00;;;18.34;100.00
9257;BME280;4665;51.368;6.782;2022-07-21T03:45:25;101455.78;;;18.34;100.00
9257;BME280;4665;51.368;6.782;2022-07-21T03:47:51;101430.78;;;18.25;100.00
9257;BME280;4665;51.368;6.782;2022-07-21T03:50:17;101439.88;;;18.39;100.00
9257;BME280;4665;51.368;6.782;2022-07-21T03:52:44;101442.56;;;18.39;100.00
9257;BME280;4665;51.368;6.782;2022-07-21T03:55:09;101432.72;;;18.31;100.00
9257;BME280;4665;51.368;6.782;2022-07-21T04:00:04;101424.25;;;18.34;100.00
9257;BME280;4665;51.368;6.782;2022-07-21T04:02:30;101420.16;;;18.38;100.00
9257;BME280;4665;51.368;6.782;2022-07-21T04:04:55;101431.38;;;18.42;100.00
9257;BME280;4665;51.368;6.782;2022-07-21T04:07:21;101416.16;;;18.34;100.00
9257;BME280;4665;51.368;6.782;2022-07-21T04:09:46;101419.28;;;18.38;100.00
9257;BME280;4665;51.368;6.782;2022-07-21T04:12:12;101415.97;;;18.36;100.00
9257;BME280;4665;51.368;6.782;2022-07-21T04:14:37;101411.22;;;18.38;100.00
9257;BME280;4665;51.368;6.782;2022-07-21T04:17:05;101415.13;;;18.35;100.00
9257;BME280;4665;51.368;6.782;2022-07-21T04:19:31;101399.44;;;18.24;100.00
9257;BME280;4665;51.368;6.782;2022-07-21T04:21:58;101394.56;;;18.13;100.00
9257;BME280;4665;51.368;6.782;2022-07-21T04:24:23;101408.31;;;18.18;100.00
9257;BME280;4665;51.368;6.782;2022-07-21T04:26:49;101399.00;;;18.05;100.00
9257;BME280;4665;51.368;6.782;2022-07-21T04:29:14;101424.84;;;18.15;100.00
9257;BME280;4665;51.368;6.782;2022-07-21T04:31:40;101396.44;;;17.97;100.00
9257;BME280;4665;51.368;6.782;2022-07-21T04:34:05;101427.84;;;18.05;100.00
9257;BME280;4665;51.368;6.782;2022-07-21T04:36:30;101413.81;;;17.95;100.00
9257;BME280;4665;51.368;6.782;2022-07-21T04:38:56;101419.38;;;17.93;100.00
9257;BME280;4665;51.368;6.782;2022-07-21T04:41:21;101434.44;;;18.02;100.00
9257;BME280;4665;51.368;6.782;2022-07-21T04:43:47;101428.41;;;18.00;100.00
9257;BME280;4665;51.368;6.782;2022-07-21T04:46:12;101426.19;;;18.04;100.00
9257;BME280;4665;51.368;6.782;2022-07-21T04:48:38;101433.44;;;18.03;100.00
9257;BME280;4665;51.368;6.782;2022-07-21T04:51:03;101428.22;;;18.02;100.00
9257;BME280;4665;51.368;6.782;2022-07-21T04:53:29;101431.91;;;18.01;100.00
9257;BME280;4665;51.368;6.782;2022-07-21T04:55:54;101437.53;;;17.99;100.00
9257;BME280;4665;51.368;6.782;2022-07-21T04:58:19;101437.53;;;17.99;100.00
9257;BME280;4665;51.368;6.782;2022-07-21T05:00:45;101438.16;;;18.01;100.00
9257;BME280;4665;51.368;6.782;2022-07-21T05:03:10;101440.66;;;18.03;100.00
9257;BME280;4665;51.368;6.782;2022-07-21T05:05:38;101447.53;;;18.05;100.00
9257;BME280;4665;51.368;6.782;2022-07-21T05:08:04;101447.53;;;18.05;100.00
9257;BME280;4665;51.368;6.782;2022-07-21T05:10:29;101439.84;;;18.02;100.00
9257;BME280;4665;51.368;6.782;2022-07-21T05:12:54;101448.88;;;17.95;100.00
9257;BME280;4665;51.368;6.782;2022-07-21T05:15:20;101459.09;;;17.99;100.00
9257;BME280;4665;51.368;6.782;2022-07-21T05:17:45;101448.88;;;17.95;100.00
9257;BME280;4665;51.368;6.782;2022-07-21T05:20:11;101452.00;;;17.98;100.00
9257;BME280;4665;51.368;6.782;2022-07-21T05:22:37;101454.09;;;17.96;100.00
9257;BME280;4665;51.368;6.782;2022-07-21T05:25:03;101436.03;;;17.82;100.00
9257;BME280;4665;51.368;6.782;2022-07-21T05:27:29;101444.03;;;17.90;100.00
9257;BME280;4665;51.368;6.782;2022-07-21T05:29:54;101458.16;;;17.92;100.00
9257;BME280;4665;51.368;6.782;2022-07-21T05:32:21;101437.34;;;17.86;100.00
9257;BME280;4665;51.368;6.782;2022-07-21T05:34:46;101433.03;;;17.77;100.00
9257;BME280;4665;51.368;6.782;2022-07-21T05:37:11;101449.44;;;17.90;100.00
9257;BME280;4665;51.368;6.782;2022-07-21T05:39:37;101445.69;;;17.91;100.00
9257;BME280;4665;51.368;6.782;2022-07-21T05:42:03;101441.50;;;17.88;100.00
9257;BME280;4665;51.368;6.782;2022-07-21T05:44:28;101449.44;;;17.90;100.00
9257;BME280;4665;51.368;6.782;2022-07-21T05:46:53;101454.44;;;17.93;100.00
9257;BME280;4665;51.368;6.782;2022-07-21T05:49:19;101451.75;;;17.93;100.00
9257;BME280;4665;51.368;6.782;2022-07-21T05:51:44;101451.84;;;17.85;100.00
9257;BME280;4665;51.368;6.782;2022-07-21T05:54:10;101457.34;;;17.92;100.00
9257;BME280;4665;51.368;6.782;2022-07-21T05:56:35;101456.47;;;17.91;100.00
9257;BME280;4665;51.368;6.782;2022-07-21T05:59:00;101459.47;;;17.96;100.00
9257;BME280;4665;51.368;6.782;2022-07-21T06:01:26;101453.22;;;17.96;100.00
9257;BME280;4665;51.368;6.782;2022-07-21T06:03:51;101456.78;;;17.96;100.00
9257;BME280;4665;51.368;6.782;2022-07-21T06:06:19;101467.91;;;17.93;100.00
9257;BME280;4665;51.368;6.782;2022-07-21T06:08:46;101456.56;;;17.98;100.00
9257;BME280;4665;51.368;6.782;2022-07-21T06:11:15;101466.34;;;17.99;100.00
9257;BME280;4665;51.368;6.782;2022-07-21T06:13:41;101458.81;;;17.94;100.00
9257;BME280;4665;51.368;6.782;2022-07-21T06:16:07;101468.09;;;18.06;100.00
9257;BME280;4665;51.368;6.782;2022-07-21T06:18:33;101461.66;;;18.07;100.00
9257;BME280;4665;51.368;6.782;2022-07-21T06:20:59;101465.84;;;18.10;100.00
9257;BME280;4665;51.368;6.782;2022-07-21T06:23:25;101468.38;;;18.12;100.00
9257;BME280;4665;51.368;6.782;2022-07-21T06:25:54;101472.09;;;18.11;100.00
9257;BME280;4665;51.368;6.782;2022-07-21T06:28:20;101479.63;;;18.15;100.00
9257;BME280;4665;51.368;6.782;2022-07-21T06:30:46;101479.81;;;18.14;100.00
9257;BME280;4665;51.368;6.782;2022-07-21T06:33:12;101470.78;;;18.06;100.00
9257;BME280;4665;51.368;6.782;2022-07-21T06:35:37;101473.75;;;18.12;100.00
9257;BME280;4665;51.368;6.782;2022-07-21T06:38:03;101474.13;;;18.08;100.00
9257;BME280;4665;51.368;6.782;2022-07-21T06:40:28;101474.97;;;18.09;100.00
9257;BME280;4665;51.368;6.782;2022-07-21T06:42:54;101479.81;;;18.14;100.00
9257;BME280;4665;51.368;6.782;2022-07-21T06:45:21;101471.06;;;18.12;100.00
9257;BME280;4665;51.368;6.782;2022-07-21T06:47:46;101459.28;;;18.13;100.00
9257;BME280;4665;51.368;6.782;2022-07-21T06:50:12;101470.06;;;18.13;100.00
9257;BME280;4665;51.368;6.782;2022-07-21T06:52:37;101457.19;;;18.15;100.00
9257;BME280;4665;51.368;6.782;2022-07-21T06:55:04;101471.97;;;18.19;100.00
9257;BME280;4665;51.368;6.782;2022-07-21T06:57:30;101471.50;;;18.30;100.00
9257;BME280;4665;51.368;6.782;2022-07-21T06:59:56;101480.75;;;18.42;100.00
9257;BME280;4665;51.368;6.782;2022-07-21T07:02:21;101478.81;;;18.51;100.00
9257;BME280;4665;51.368;6.782;2022-07-21T07:04:46;101467.44;;;18.56;100.00
9257;BME280;4665;51.368;6.782;2022-07-21T07:07:12;101480.25;;;18.68;100.00
9257;BME280;4665;51.368;6.782;2022-07-21T07:09:37;101476.44;;;18.63;100.00
9257;BME280;4665;51.368;6.782;2022-07-21T07:12:03;101481.34;;;18.74;100.00
9257;BME280;4665;51.368;6.782;2022-07-21T07:14:30;101479.75;;;18.80;100.00
9257;BME280;4665;51.368;6.782;2022-07-21T07:16:56;101482.16;;;18.89;100.00
9257;BME280;4665;51.368;6.782;2022-07-21T07:19:21;101483.09;;;18.82;100.00
9257;BME280;4665;51.368;6.782;2022-07-21T07:21:47;101489.63;;;18.87;100.00
9257;BME280;4665;51.368;6.782;2022-07-21T07:24:12;101487.09;;;18.86;100.00
9257;BME280;4665;51.368;6.782;2022-07-21T07:26:38;101470.34;;;18.76;100.00
9257;BME280;4665;51.368;6.782;2022-07-21T07:29:03;101477.44;;;18.77;100.00
9257;BME280;4665;51.368;6.782;2022-07-21T07:31:28;101478.81;;;18.87;100.00
9257;BME280;4665;51.368;6.782;2022-07-21T07:33:54;101489.34;;;19.04;100.00
9257;BME280;4665;51.368;6.782;2022-07-21T07:36:23;101493.34;;;19.08;100.00
9257;BME280;4665;51.368;6.782;2022-07-21T10:12:08;101524.84;;;20.48;89.85
9257;BME280;4665;51.368;6.782;2022-07-21T10:14:35;101539.38;;;20.34;89.53
9257;BME280;4665;51.368;6.782;2022-07-21T10:17:01;101532.59;;;20.16;93.68
9257;BME280;4665;51.368;6.782;2022-07-21T10:19:29;101544.66;;;19.79;100.00
9257;BME280;4665;51.368;6.782;2022-07-21T10:24:35;101543.59;;;19.30;100.00
9257;BME280;4665;51.368;6.782;2022-07-21T10:27:04;101533.13;;;19.21;100.00
9257;BME280;4665;51.368;6.782;2022-07-21T10:29:49;101542.84;;;19.15;100.00
9257;BME280;4665;51.368;6.782;2022-07-21T10:32:20;101535.13;;;19.12;100.00
9257;BME280;4665;51.368;6.782;2022-07-21T10:34:47;101531.50;;;19.05;100.00
9257;BME280;4665;51.368;6.782;2022-07-21T10:40:05;101535.66;;;19.01;100.00
9257;BME280;4665;51.368;6.782;2022-07-21T10:42:31;101544.91;;;18.91;100.00
9257;BME280;4665;51.368;6.782;2022-07-21T10:44:57;101539.50;;;18.91;100.00
9257;BME280;4665;51.368;6.782;2022-07-21T10:47:23;101541.34;;;18.91;100.00
9257;BME280;4665;51.368;6.782;2022-07-21T10:49:58;101553.81;;;18.92;100.00
9257;BME280;4665;51.368;6.782;2022-07-21T10:57:46;101548.34;;;18.85;100.00
9257;BME280;4665;51.368;6.782;2022-07-21T11:02:42;101551.69;;;18.72;100.00
9257;BME280;4665;51.368;6.782;2022-07-21T11:05:08;101546.25;;;18.66;100.00
9257;BME280;4665;51.368;6.782;2022-07-21T11:10:36;101545.19;;;18.67;100.00
9257;BME280;4665;51.368;6.782;2022-07-21T11:13:02;101544.81;;;18.70;100.00
9257;BME280;4665;51.368;6.782;2022-07-21T11:18:09;101550.34;;;18.62;100.00
9257;BME280;4665;51.368;6.782;2022-07-21T11:20:35;101543.72;;;18.64;100.00
9257;BME280;4665;51.368;6.782;2022-07-21T11:23:00;101545.59;;;18.64;100.00
9257;BME280;4665;51.368;6.782;2022-07-21T11:25:29;101549.38;;;18.69;100.00
9257;BME280;4665;51.368;6.782;2022-07-21T11:27:54;101548.09;;;18.80;100.00
9257;BME280;4665;51.368;6.782;2022-07-21T11:30:20;101545.66;;;18.85;100.00
9257;BME280;4665;51.368;6.782;2022-07-21T11:32:46;101546.75;;;18.76;100.00
9257;BME280;4665;51.368;6.782;2022-07-21T11:35:12;101540.34;;;18.77;100.00
9257;BME280;4665;51.368;6.782;2022-07-21T11:37:40;101542.75;;;18.72;100.00
9257;BME280;4665;51.368;6.782;2022-07-21T11:42:32;101542.88;;;18.64;100.00
9257;BME280;4665;51.368;6.782;2022-07-21T11:44:58;101548.72;;;18.67;100.00
9257;BME280;4665;51.368;6.782;2022-07-21T11:47:24;101546.25;;;18.66;100.00
9257;BME280;4665;51.368;6.782;2022-07-21T11:49:53;101550.41;;;18.68;100.00
9257;BME280;4665;51.368;6.782;2022-07-21T11:52:24;101547.63;;;18.62;100.00
9257;BME280;4665;51.368;6.782;2022-07-21T11:54:52;101547.91;;;18.67;100.00
9257;BME280;4665;51.368;6.782;2022-07-21T11:57:19;101546.59;;;18.63;100.00
9257;BME280;4665;51.368;6.782;2022-07-21T11:59:46;101544.09;;;18.61;100.00
9257;BME280;4665;51.368;6.782;2022-07-21T12:02:18;101549.75;;;18.66;100.00
9257;BME280;4665;51.368;6.782;2022-07-21T12:10:00;101543.72;;;18.64;100.00
9257;BME280;4665;51.368;6.782;2022-07-21T12:12:42;101545.19;;;18.67;100.00
9257;BME280;4665;51.368;6.782;2022-07-21T12:15:23;101545.28;;;18.59;100.00
9257;BME280;4665;51.368;6.782;2022-07-21T12:20:26;101548.94;;;18.66;100.00
9257;BME280;4665;51.368;6.782;2022-07-21T12:22:52;101540.84;;;18.66;100.00
9257;BME280;4665;51.368;6.782;2022-07-21T12:25:36;101539.22;;;18.71;100.00
9257;BME280;4665;51.368;6.782;2022-07-21T12:28:03;101541.28;;;18.69;100.00
9257;BME280;4665;51.368;6.782;2022-07-21T12:33:01;101545.84;;;18.69;100.00
9257;BME280;4665;51.368;6.782;2022-07-21T12:35:27;101550.59;;;18.67;100.00
9257;BME280;4665;51.368;6.782;2022-07-21T12:38:05;101546.25;;;18.66;100.00
9257;BME280;4665;51.368;6.782;2022-07-21T12:40:32;101548.44;;;18.77;100.00
9257;BME280;4665;51.368;6.782;2022-07-21T12:48:35;101537.28;;;18.80;100.00
9257;BME280;4665;51.368;6.782;2022-07-21T12:53:34;101546.41;;;18.64;100.00
9257;BME280;4665;51.368;6.782;2022-07-21T12:55:59;101551.63;;;18.66;100.00
9257;BME280;4665;51.368;6.782;2022-07-21T12:58:25;101544.47;;;18.58;100.00
9257;BME280;4665;51.368;6.782;2022-07-21T13:00:50;101549.91;;;18.43;100.00
9257;BME280;4665;51.368;6.782;2022-07-21T13:03:16;101542.63;;;18.44;100.00
9257;BME280;4665;51.368;6.782;2022-07-21T13:05:41;101549.16;;;18.35;100.00
9257;BME280;4665;51.368;6.782;2022-07-21T13:08:07;101549.41;;;18.40;100.00
9257;BME280;4665;51.368;6.782;2022-07-21T13:10:33;101556.59;;;18.33;100.00
9257;BME280;4665;51.368;6.782;2022-07-21T13:12:58;101554.09;;;18.31;100.00
9257;BME280;4665;51.368;6.782;2022-07-21T13:15:24;101561.34;;;18.16;100.00
9257;BME280;4665;51.368;6.782;2022-07-21T13:17:49;101570.81;;;18.12;100.00
9257;BME280;4665;51.368;6.782;2022-07-21T13:20:15;101561.25;;;18.09;100.00
9257;BME280;4665;51.368;6.782;2022-07-21T13:22:41;101567.28;;;17.96;100.00
9257;BME280;4665;51.368;6.782;2022-07-21T13:25:07;101563.72;;;17.96;100.00
9257;BME280;4665;51.368;6.782;2022-07-21T13:27:33;101569.22;;;17.87;100.00
9257;BME280;4665;51.368;6.782;2022-07-21T13:30:00;101561.16;;;17.79;100.00
9257;BME280;4665;51.368;6.782;2022-07-21T13:32:25;101575.03;;;17.76;100.00
9257;BME280;4665;51.368;6.782;2022-07-21T13:34:51;101576.88;;;17.76;100.00
9257;BME280;4665;51.368;6.782;2022-07-21T13:37:16;101565.06;;;17.77;100.00
9257;BME280;4665;51.368;6.782;2022-07-21T13:39:41;101572.31;;;17.76;100.00
9257;BME280;4665;51.368;6.782;2022-07-21T13:42:07;101564.13;;;17.70;100.00
9257;BME280;4665;51.368;6.782;2022-07-21T13:44:33;101573.03;;;17.70;100.00
9257;BME280;4665;51.368;6.782;2022-07-21T13:46:59;101573.88;;;17.71;100.00
9257;BME280;4665;51.368;6.782;2022-07-21T13:49:24;101576.41;;;17.72;100.00
9257;BME280;4665;51.368;6.782;2022-07-21T13:51:50;101568.03;;;17.67;100.00
9257;BME280;4665;51.368;6.782;2022-07-21T13:54:15;101579.25;;;17.71;100.00
9257;BME280;4665;51.368;6.782;2022-07-21T13:56:41;101578.31;;;17.63;100.00
9257;BME280;4665;51.368;6.782;2022-07-21T13:59:06;101576.66;;;17.62;100.00
9257;BME280;4665;51.368;6.782;2022-07-21T14:01:32;101574.97;;;17.61;100.00
9257;BME280;4665;51.368;6.782;2022-07-21T14:03:57;101583.38;;;17.66;100.00
9257;BME280;4665;51.368;6.782;2022-07-21T14:06:23;101578.94;;;17.74;100.00
9257;BME280;4665;51.368;6.782;2022-07-21T14:08:48;101582.63;;;17.73;100.00
9257;BME280;4665;51.368;6.782;2022-07-21T14:11:14;101579.94;;;17.73;100.00
9257;BME280;4665;51.368;6.782;2022-07-21T14:13:40;101579.09;;;17.72;100.00
9257;BME280;4665;51.368;6.782;2022-07-21T14:16:05;101578.81;;;17.67;100.00
9257;BME280;4665;51.368;6.782;2022-07-21T14:18:31;101575.81;;;17.62;100.00
9257;BME280;4665;51.368;6.782;2022-07-21T14:20:57;101576.66;;;17.62;100.00
9257;BME280;4665;51.368;6.782;2022-07-21T14:23:22;101583.00;;;17.70;100.00
9257;BME280;4665;51.368;6.782;2022-07-21T14:25:49;101584.91;;;17.61;100.00
9257;BME280;4665;51.368;6.782;2022-07-21T14:28:15;101583.53;;;17.65;100.00
9257;BME280;4665;51.368;6.782;2022-07-21T14:30:41;101581.50;;;17.67;100.00
9257;BME280;4665;51.368;6.782;2022-07-21T14:33:07;101578.03;;;17.58;100.00
9257;BME280;4665;51.368;6.782;2022-07-21T14:35:32;101569.94;;;17.58;100.00
9257;BME280;4665;51.368;6.782;2022-07-21T14:37:57;101585.03;;;17.67;100.00
9257;BME280;4665;51.368;6.782;2022-07-21T14:40:23;101585.75;;;17.61;100.00
9257;BME280;4665;51.368;6.782;2022-07-21T14:42:50;101582.22;;;17.61;100.00
9257;BME280;4665;51.368;6.782;2022-07-21T14:45:18;101596.09;;;17.73;100.00
9257;BME280;4665;51.368;6.782;2022-07-21T14:47:44;101592.44;;;17.65;100.00
9257;BME280;4665;51.368;6.782;2022-07-21T14:50:11;101596.19;;;17.64;100.00
9257;BME280;4665;51.368;6.782;2022-07-21T14:52:37;101603.44;;;17.64;100.00
9257;BME280;4665;51.368;6.782;2022-07-21T14:55:04;101600.75;;;17.64;100.00
9257;BME280;4665;51.368;6.782;2022-07-21T14:57:29;101599.34;;;17.68;100.00
9257;BME280;4665;51.368;6.782;2022-07-21T14:59:55;101597.00;;;17.65;100.00
9257;BME280;4665;51.368;6.782;2022-07-21T15:02:20;101593.66;;;17.63;100.00
9257;BME280;4665;51.368;6.782;2022-07-21T15:04:46;101601.06;;;17.61;100.00
9257;BME280;4665;51.368;6.782;2022-07-21T15:07:11;101600.25;;;17.60;100.00
9257;BME280;4665;51.368;6.782;2022-07-21T15:09:37;101601.28;;;17.59;100.00
9257;BME280;4665;51.368;6.782;2022-07-21T15:12:02;101596.19;;;17.64;100.00
9257;BME280;4665;51.368;6.782;2022-07-21T15:14:28;101601.06;;;17.61;100.00
9257;BME280;4665;51.368;6.782;2022-07-21T15:16:53;101600.78;;;17.56;100.00
9257;BME280;4665;51.368;6.782;2022-07-21T15:19:19;101596.53;;;17.61;100.00
9257;BME280;4665;51.368;6.782;2022-07-21T15:21:45;101590.69;;;17.58;100.00
9257;BME280;4665;51.368;6.782;2022-07-21T15:24:10;101594.97;;;17.67;100.00
9257;BME280;4665;51.368;6.782;2022-07-21T15:26:35;101590.78;;;17.64;100.00
9257;BME280;4665;51.368;6.782;2022-07-21T15:29:01;101586.13;;;17.58;100.00
9257;BME280;4665;51.368;6.782;2022-07-21T15:31:30;101593.38;;;17.58;100.00
9257;BME280;4665;51.368;6.782;2022-07-21T15:33:56;101593.25;;;17.51;100.00
9257;BME280;4665;51.368;6.782;2022-07-21T15:36:22;101597.25;;;17.55;100.00
9257;BME280;4665;51.368;6.782;2022-07-21T15:38:47;101597.72;;;17.59;100.00
9257;BME280;4665;51.368;6.782;2022-07-21T15:41:12;101596.06;;;17.58;100.00
9257;BME280;4665;51.368;6.782;2022-07-21T15:43:38;101588.91;;;17.50;100.00
9257;BME280;4665;51.368;6.782;2022-07-21T15:46:03;101597.25;;;17.55;100.00
9257;BME280;4665;51.368;6.782;2022-07-21T15:48:29;101600.50;;;17.51;100.00
9257;BME280;4665;51.368;6.782;2022-07-21T15:50:54;101597.81;;;17.51;100.00
9257;BME280;4665;51.368;6.782;2022-07-21T15:53:20;101599.00;;;17.48;100.00
9257;BME280;4665;51.368;6.782;2022-07-21T15:55:45;101600.34;;;17.52;100.00
9257;BME280;4665;51.368;6.782;2022-07-21T15:58:11;101600.63;;;17.57;100.00
9257;BME280;4665;51.368;6.782;2022-07-21T16:00:36;101596.78;;;17.52;100.00
9257;BME280;4665;51.368;6.782;2022-07-21T16:03:02;101600.25;;;17.60;100.00
9257;BME280;4665;51.368;6.782;2022-07-21T16:05:27;101611.16;;;17.67;100.00
9257;BME280;4665;51.368;6.782;2022-07-21T16:07:54;101601.56;;;17.64;100.00
9257;BME280;4665;51.368;6.782;2022-07-21T16:10:21;101600.19;;;17.69;100.00